sensor_id;sensor_type;location;lat;lon;timestamp;pressure;altitude;pressure_sealevel;temperature;humidity
48530;BME280;34927;37.302;-121.982;2022-11-09T00:00:22;99667.0;;;19.76;41.61
48530;BME280;34927;37.302;-121.982;2022-11-09T00:01:27;99667.0;;;19.74;41.42
48530;BME280;34927;37.302;-121.982;2022-11-09T00:02:32;99663.0;;;19.70;41.82
48530;BME280;34927;37.302;-121.982;2022-11-09T00:03:36;99669.0;;;19.70;41.22
48530;BME280;34927;37.302;-121.982;2022-11-09T00:04:42;99669.0;;;19.78;41.06
48530;BME280;34927;37.302;-121.982;2022-11-09T00:05:54;99665.0;;;19.78;40.92
48530;BME280;34927;37.302;-121.982;2022-11-09T00:06:56;99667.0;;;19.76;40.84
48530;BME280;34927;37.302;-121.982;2022-11-09T00:08:04;99668.0;;;19.77;40.86
48530;BME280;34927;37.302;-121.982;2022-11-09T00:09:07;99665.0;;;19.78;40.82
48530;BME280;34927;37.302;-121.982;2022-11-09T00:10:12;99668.0;;;19.79;40.76
48530;BME280;34927;37.302;-121.982;2022-11-09T00:11:17;99667.0;;;19.80;40.75
48530;BME280;34927;37.302;-121.982;2022-11-09T00:12:21;99670.0;;;19.77;40.73
48530;BME280;34927;37.302;-121.982;2022-11-09T00:13:27;99673.0;;;19.74;40.80
48530;BME280;34927;37.302;-121.982;2022-11-09T00:14:31;99675.0;;;19.74;40.71
48530;BME280;34927;37.302;-121.982;2022-11-09T00:15:36;99676.0;;;19.74;40.73
48530;BME280;34927;37.302;-121.982;2022-11-09T00:16:42;99677.0;;;19.78;40.79
48530;BME280;34927;37.302;-121.982;2022-11-09T00:17:46;99680.0;;;19.78;40.72
48530;BME280;34927;37.302;-121.982;2022-11-09T00:18:51;99680.0;;;19.77;40.69
48530;BME280;34927;37.302;-121.982;2022-11-09T00:19:57;99679.0;;;19.84;40.53
48530;BME280;34927;37.302;-121.982;2022-11-09T00:21:05;99679.0;;;19.82;40.53
48530;BME280;34927;37.302;-121.982;2022-11-09T00:22:11;99686.0;;;19.83;40.54
48530;BME280;34927;37.302;-121.982;2022-11-09T00:23:16;99690.0;;;19.88;40.38
48530;BME280;34927;37.302;-121.982;2022-11-09T00:24:21;99690.0;;;19.80;40.49
48530;BME280;34927;37.302;-121.982;2022-11-09T00:25:26;99693.0;;;19.79;40.48
48530;BME280;34927;37.302;-121.982;2022-11-09T00:26:32;99698.0;;;19.76;40.51
48530;BME280;34927;37.302;-121.982;2022-11-09T00:27:36;99697.0;;;19.76;40.41
48530;BME280;34927;37.302;-121.982;2022-11-09T00:28:41;99701.0;;;19.79;40.38
48530;BME280;34927;37.302;-121.982;2022-11-09T00:29:46;99702.0;;;19.77;40.54
48530;BME280;34927;37.302;-121.982;2022-11-09T00:30:58;99699.0;;;19.74;40.42
48530;BME280;34927;37.302;-121.982;2022-11-09T00:32:02;99699.0;;;19.74;40.51
48530;BME280;34927;37.302;-121.982;2022-11-09T00:33:07;99699.0;;;19.71;40.38
48530;BME280;34927;37.302;-121.982;2022-11-09T00:34:11;99696.0;;;19.80;40.33
48530;BME280;34927;37.302;-121.982;2022-11-09T00:35:17;99693.0;;;19.79;40.28
48530;BME280;34927;37.302;-121.982;2022-11-09T00:36:23;99693.0;;;19.75;40.38
48530;BME280;34927;37.302;-121.982;2022-11-09T00:37:29;99694.0;;;19.78;40.28
48530;BME280;34927;37.302;-121.982;2022-11-09T00:38:32;99696.0;;;19.78;40.23
48530;BME280;34927;37.302;-121.982;2022-11-09T00:39:36;99698.0;;;19.78;40.24
48530;BME280;34927;37.302;-121.982;2022-11-09T00:40:41;99700.0;;;19.73;40.26
48530;BME280;34927;37.302;-121.982;2022-11-09T00:41:46;99700.0;;;19.74;40.28
48530;BME280;34927;37.302;-121.982;2022-11-09T00:42:52;99702.0;;;19.69;40.29
48530;BME280;34927;37.302;-121.982;2022-11-09T00:43:56;99702.0;;;19.74;40.18
48530;BME280;34927;37.302;-121.982;2022-11-09T00:45:01;99702.0;;;19.73;40.21
48530;BME280;34927;37.302;-121.982;2022-11-09T00:46:07;99704.0;;;19.71;40.26
48530;BME280;34927;37.302;-121.982;2022-11-09T00:47:12;99709.0;;;19.71;40.20
48530;BME280;34927;37.302;-121.982;2022-11-09T00:48:17;99709.0;;;19.70;40.24
48530;BME280;34927;37.302;-121.982;2022-11-09T00:49:21;99714.0;;;19.66;40.29
48530;BME280;34927;37.302;-121.982;2022-11-09T00:50:26;99718.0;;;19.69;40.31
48530;BME280;34927;37.302;-121.982;2022-11-09T00:51:31;99724.0;;;19.67;40.26
48530;BME280;34927;37.302;-121.982;2022-11-09T00:52:37;99726.0;;;19.63;40.27
48530;BME280;34927;37.302;-121.982;2022-11-09T00:53:41;99730.0;;;19.66;40.14
48530;BME280;34927;37.302;-121.982;2022-11-09T00:54:46;99732.0;;;19.68;40.14
48530;BME280;34927;37.302;-121.982;2022-11-09T00:55:54;99733.0;;;19.71;40.08
48530;BME280;34927;37.302;-121.982;2022-11-09T00:56:57;99735.0;;;19.68;40.12
48530;BME280;34927;37.302;-121.982;2022-11-09T00:58:01;99738.0;;;19.70;40.05
48530;BME280;34927;37.302;-121.982;2022-11-09T00:59:07;99739.0;;;19.70;40.07
48530;BME280;34927;37.302;-121.982;2022-11-09T01:01:17;99741.0;;;19.61;40.14
48530;BME280;34927;37.302;-121.982;2022-11-09T01:02:21;99742.0;;;19.67;40.14
48530;BME280;34927;37.302;-121.982;2022-11-09T01:03:27;99743.0;;;19.59;40.13
48530;BME280;34927;37.302;-121.982;2022-11-09T01:05:37;99752.0;;;19.60;40.13
48530;BME280;34927;37.302;-121.982;2022-11-09T01:06:41;99759.0;;;19.60;40.14
48530;BME280;34927;37.302;-121.982;2022-11-09T01:07:47;99767.0;;;19.58;40.11
48530;BME280;34927;37.302;-121.982;2022-11-09T01:08:52;99772.0;;;19.57;40.09
48530;BME280;34927;37.302;-121.982;2022-11-09T01:09:57;99776.0;;;19.62;40.04
48530;BME280;34927;37.302;-121.982;2022-11-09T01:11:05;99777.0;;;19.57;40.08
48530;BME280;34927;37.302;-121.982;2022-11-09T01:12:11;99777.0;;;19.59;40.16
48530;BME280;34927;37.302;-121.982;2022-11-09T01:13:18;99779.0;;;19.54;40.14
48530;BME280;34927;37.302;-121.982;2022-11-09T01:14:21;99779.0;;;19.54;40.15
48530;BME280;34927;37.302;-121.982;2022-11-09T01:15:27;99778.0;;;19.51;40.20
48530;BME280;34927;37.302;-121.982;2022-11-09T01:16:32;99782.0;;;19.54;40.13
48530;BME280;34927;37.302;-121.982;2022-11-09T01:17:36;99782.0;;;19.53;40.08
48530;BME280;34927;37.302;-121.982;2022-11-09T01:18:42;99784.0;;;19.50;40.20
48530;BME280;34927;37.302;-121.982;2022-11-09T01:19:46;99784.0;;;19.54;40.13
48530;BME280;34927;37.302;-121.982;2022-11-09T01:20:52;99785.0;;;19.50;40.13
48530;BME280;34927;37.302;-121.982;2022-11-09T01:21:56;99786.0;;;19.47;40.13
48530;BME280;34927;37.302;-121.982;2022-11-09T01:23:01;99784.0;;;19.45;40.16
48530;BME280;34927;37.302;-121.982;2022-11-09T01:24:08;99785.0;;;19.45;40.20
48530;BME280;34927;37.302;-121.982;2022-11-09T01:25:12;99781.0;;;19.47;40.21
48530;BME280;34927;37.302;-121.982;2022-11-09T01:26:16;99782.0;;;19.44;40.21
48530;BME280;34927;37.302;-121.982;2022-11-09T01:27:22;99784.0;;;19.50;40.13
48530;BME280;34927;37.302;-121.982;2022-11-09T01:28:27;99787.0;;;19.48;40.21
48530;BME280;34927;37.302;-121.982;2022-11-09T01:29:32;99790.0;;;19.41;40.24
48530;BME280;34927;37.302;-121.982;2022-11-09T01:30:38;99790.0;;;19.39;40.31
48530;BME280;34927;37.302;-121.982;2022-11-09T01:31:41;99787.0;;;19.48;40.28
48530;BME280;34927;37.302;-121.982;2022-11-09T01:32:46;99787.0;;;19.70;40.03
48530;BME280;34927;37.302;-121.982;2022-11-09T01:33:52;99790.0;;;19.98;39.58
48530;BME280;34927;37.302;-121.982;2022-11-09T01:34:57;99793.0;;;20.29;38.97
48530;BME280;34927;37.302;-121.982;2022-11-09T01:36:02;99797.0;;;20.55;38.47
48530;BME280;34927;37.302;-121.982;2022-11-09T01:37:07;99798.0;;;20.87;37.90
48530;BME280;34927;37.302;-121.982;2022-11-09T01:38:11;99801.0;;;21.09;37.48
48530;BME280;34927;37.302;-121.982;2022-11-09T01:39:16;99805.0;;;21.29;37.08
48530;BME280;34927;37.302;-121.982;2022-11-09T01:40:21;99804.0;;;21.44;36.80
48530;BME280;34927;37.302;-121.982;2022-11-09T01:41:27;99808.0;;;21.67;36.36
48530;BME280;34927;37.302;-121.982;2022-11-09T01:42:35;99810.0;;;21.80;36.11
48530;BME280;34927;37.302;-121.982;2022-11-09T01:43:43;99812.0;;;21.98;35.74
48530;BME280;34927;37.302;-121.982;2022-11-09T01:44:46;99813.0;;;22.11;35.55
48530;BME280;34927;37.302;-121.982;2022-11-09T01:45:55;99817.0;;;22.19;35.43
48530;BME280;34927;37.302;-121.982;2022-11-09T01:47:05;99820.0;;;22.32;35.14
48530;BME280;34927;37.302;-121.982;2022-11-09T01:48:14;99824.0;;;22.47;34.92
48530;BME280;34927;37.302;-121.982;2022-11-09T01:49:34;99826.0;;;22.54;34.77
48530;BME280;34927;37.302;-121.982;2022-11-09T01:50:46;99829.0;;;22.64;34.59
48530;BME280;34927;37.302;-121.982;2022-11-09T01:51:54;99833.0;;;22.77;34.44
48530;BME280;34927;37.302;-121.982;2022-11-09T01:53:04;99835.0;;;22.81;34.37
48530;BME280;34927;37.302;-121.982;2022-11-09T01:54:11;99840.0;;;22.92;34.18
48530;BME280;34927;37.302;-121.982;2022-11-09T01:55:20;99840.0;;;23.00;34.06
48530;BME280;34927;37.302;-121.982;2022-11-09T01:56:27;99838.0;;;23.09;33.97
48530;BME280;34927;37.302;-121.982;2022-11-09T01:57:37;99837.0;;;23.13;33.87
48530;BME280;34927;37.302;-121.982;2022-11-09T01:58:45;99835.0;;;23.20;33.74
48530;BME280;34927;37.302;-121.982;2022-11-09T01:59:55;99839.0;;;23.33;33.55
48530;BME280;34927;37.302;-121.982;2022-11-09T02:01:02;99841.0;;;23.39;33.47
48530;BME280;34927;37.302;-121.982;2022-11-09T02:02:07;99841.0;;;23.44;33.40
48530;BME280;34927;37.302;-121.982;2022-11-09T02:03:14;99841.0;;;23.49;33.26
48530;BME280;34927;37.302;-121.982;2022-11-09T02:04:23;99845.0;;;23.53;33.24
48530;BME280;34927;37.302;-121.982;2022-11-09T02:05:33;99846.0;;;23.62;33.08
48530;BME280;34927;37.302;-121.982;2022-11-09T02:06:42;99843.0;;;23.63;33.08
48530;BME280;34927;37.302;-121.982;2022-11-09T02:07:47;99845.0;;;23.45;33.31
48530;BME280;34927;37.302;-121.982;2022-11-09T02:08:55;99851.0;;;23.23;33.62
48530;BME280;34927;37.302;-121.982;2022-11-09T02:10:06;99852.0;;;23.18;33.78
48530;BME280;34927;37.302;-121.982;2022-11-09T02:11:15;99854.0;;;23.02;34.13
48530;BME280;34927;37.302;-121.982;2022-11-09T02:12:23;99853.0;;;22.70;34.63
48530;BME280;34927;37.302;-121.982;2022-11-09T02:13:28;99854.0;;;22.61;34.74
48530;BME280;34927;37.302;-121.982;2022-11-09T02:14:32;99856.0;;;22.68;34.77
48530;BME280;34927;37.302;-121.982;2022-11-09T02:15:37;99859.0;;;22.83;34.58
48530;BME280;34927;37.302;-121.982;2022-11-09T02:16:42;99862.0;;;22.99;34.30
48530;BME280;34927;37.302;-121.982;2022-11-09T02:17:51;99864.0;;;23.13;34.07
48530;BME280;34927;37.302;-121.982;2022-11-09T02:18:58;99865.0;;;23.27;33.77
48530;BME280;34927;37.302;-121.982;2022-11-09T02:20:05;99866.0;;;23.38;33.60
48530;BME280;34927;37.302;-121.982;2022-11-09T02:21:11;99867.0;;;23.54;33.39
48530;BME280;34927;37.302;-121.982;2022-11-09T02:22:17;99871.0;;;23.67;33.20
48530;BME280;34927;37.302;-121.982;2022-11-09T02:23:23;99873.0;;;23.77;33.03
48530;BME280;34927;37.302;-121.982;2022-11-09T02:24:27;99874.0;;;23.87;32.92
48530;BME280;34927;37.302;-121.982;2022-11-09T02:25:31;99873.0;;;23.98;32.73
48530;BME280;34927;37.302;-121.982;2022-11-09T02:26:40;99875.0;;;24.02;32.63
48530;BME280;34927;37.302;-121.982;2022-11-09T02:27:47;99873.0;;;24.10;32.53
48530;BME280;34927;37.302;-121.982;2022-11-09T02:28:52;99874.0;;;24.18;32.46
48530;BME280;34927;37.302;-121.982;2022-11-09T02:29:57;99873.0;;;24.27;32.33
48530;BME280;34927;37.302;-121.982;2022-11-09T02:31:03;99870.0;;;24.34;32.18
48530;BME280;34927;37.302;-121.982;2022-11-09T02:32:15;99872.0;;;24.39;32.11
48530;BME280;34927;37.302;-121.982;2022-11-09T02:33:21;99875.0;;;24.36;32.10
48530;BME280;34927;37.302;-121.982;2022-11-09T02:34:27;99880.0;;;24.24;32.32
48530;BME280;34927;37.302;-121.982;2022-11-09T02:35:31;99879.0;;;24.01;32.62
48530;BME280;34927;37.302;-121.982;2022-11-09T02:36:36;99883.0;;;23.91;32.83
48530;BME280;34927;37.302;-121.982;2022-11-09T02:37:46;99885.0;;;23.69;33.29
48530;BME280;34927;37.302;-121.982;2022-11-09T02:38:53;99888.0;;;23.43;33.67
48530;BME280;34927;37.302;-121.982;2022-11-09T02:39:58;99892.0;;;23.17;34.10
48530;BME280;34927;37.302;-121.982;2022-11-09T02:41:02;99894.0;;;23.01;34.21
48530;BME280;34927;37.302;-121.982;2022-11-09T02:42:10;99894.0;;;22.91;34.44
48530;BME280;34927;37.302;-121.982;2022-11-09T02:43:17;99897.0;;;22.74;34.64
48530;BME280;34927;37.302;-121.982;2022-11-09T02:44:23;99896.0;;;22.62;34.85
48530;BME280;34927;37.302;-121.982;2022-11-09T02:45:27;99895.0;;;22.54;35.11
48530;BME280;34927;37.302;-121.982;2022-11-09T02:46:33;99898.0;;;22.68;35.12
48530;BME280;34927;37.302;-121.982;2022-11-09T02:47:37;99900.0;;;22.87;34.96
48530;BME280;34927;37.302;-121.982;2022-11-09T02:48:41;99901.0;;;23.08;34.63
48530;BME280;34927;37.302;-121.982;2022-11-09T02:49:46;99904.0;;;23.28;34.30
48530;BME280;34927;37.302;-121.982;2022-11-09T02:50:52;99904.0;;;23.50;34.02
48530;BME280;34927;37.302;-121.982;2022-11-09T02:51:57;99906.0;;;23.63;33.73
48530;BME280;34927;37.302;-121.982;2022-11-09T02:53:02;99907.0;;;23.79;33.46
48530;BME280;34927;37.302;-121.982;2022-11-09T02:54:07;99906.0;;;23.81;33.30
48530;BME280;34927;37.302;-121.982;2022-11-09T02:55:12;99908.0;;;23.65;33.50
48530;BME280;34927;37.302;-121.982;2022-11-09T02:56:16;99909.0;;;23.54;33.71
48530;BME280;34927;37.302;-121.982;2022-11-09T02:57:22;99914.0;;;23.31;34.16
48530;BME280;34927;37.302;-121.982;2022-11-09T02:58:27;99915.0;;;23.08;34.50
48530;BME280;34927;37.302;-121.982;2022-11-09T02:59:31;99915.0;;;22.96;34.67
48530;BME280;34927;37.302;-121.982;2022-11-09T03:00:36;99915.0;;;22.85;34.76
48530;BME280;34927;37.302;-121.982;2022-11-09T03:01:41;99913.0;;;22.72;34.97
48530;BME280;34927;37.302;-121.982;2022-11-09T03:02:47;99916.0;;;22.58;35.09
48530;BME280;34927;37.302;-121.982;2022-11-09T03:03:51;99917.0;;;22.65;35.18
48530;BME280;34927;37.302;-121.982;2022-11-09T03:04:57;99917.0;;;22.78;35.07
48530;BME280;34927;37.302;-121.982;2022-11-09T03:06:01;99920.0;;;22.98;34.77
48530;BME280;34927;37.302;-121.982;2022-11-09T03:07:07;99920.0;;;23.24;34.39
48530;BME280;34927;37.302;-121.982;2022-11-09T03:08:12;99922.0;;;23.41;34.08
48530;BME280;34927;37.302;-121.982;2022-11-09T03:09:16;99919.0;;;23.60;33.74
48530;BME280;34927;37.302;-121.982;2022-11-09T03:10:22;99917.0;;;23.81;33.41
48530;BME280;34927;37.302;-121.982;2022-11-09T03:11:26;99918.0;;;23.89;33.24
48530;BME280;34927;37.302;-121.982;2022-11-09T03:12:31;99918.0;;;24.02;33.03
48530;BME280;34927;37.302;-121.982;2022-11-09T03:13:37;99918.0;;;23.85;33.22
48530;BME280;34927;37.302;-121.982;2022-11-09T03:14:42;99915.0;;;23.64;33.43
48530;BME280;34927;37.302;-121.982;2022-11-09T03:15:46;99917.0;;;23.50;33.70
48530;BME280;34927;37.302;-121.982;2022-11-09T03:16:52;99916.0;;;23.22;34.15
48530;BME280;34927;37.302;-121.982;2022-11-09T03:17:56;99915.0;;;23.12;34.31
48530;BME280;34927;37.302;-121.982;2022-11-09T03:19:01;99919.0;;;22.95;34.52
48530;BME280;34927;37.302;-121.982;2022-11-09T03:20:08;99918.0;;;22.73;34.89
48530;BME280;34927;37.302;-121.982;2022-11-09T03:21:12;99923.0;;;22.65;35.05
48530;BME280;34927;37.302;-121.982;2022-11-09T03:22:17;99918.0;;;22.70;35.04
48530;BME280;34927;37.302;-121.982;2022-11-09T03:23:21;99915.0;;;22.77;34.99
48530;BME280;34927;37.302;-121.982;2022-11-09T03:24:27;99908.0;;;22.96;34.78
48530;BME280;34927;37.302;-121.982;2022-11-09T03:25:31;99909.0;;;23.21;34.37
48530;BME280;34927;37.302;-121.982;2022-11-09T03:26:37;99909.0;;;23.37;34.07
48530;BME280;34927;37.302;-121.982;2022-11-09T03:27:41;99909.0;;;23.57;33.67
48530;BME280;34927;37.302;-121.982;2022-11-09T03:28:46;99911.0;;;23.73;33.43
48530;BME280;34927;37.302;-121.982;2022-11-09T03:29:52;99911.0;;;23.95;33.13
48530;BME280;34927;37.302;-121.982;2022-11-09T03:30:56;99908.0;;;24.08;32.87
48530;BME280;34927;37.302;-121.982;2022-11-09T03:32:01;99903.0;;;24.22;32.71
48530;BME280;34927;37.302;-121.982;2022-11-09T03:33:07;99902.0;;;24.34;32.57
48530;BME280;34927;37.302;-121.982;2022-11-09T03:34:12;99905.0;;;24.16;32.78
48530;BME280;34927;37.302;-121.982;2022-11-09T03:35:17;99908.0;;;24.00;32.96
48530;BME280;34927;37.302;-121.982;2022-11-09T03:36:22;99910.0;;;23.91;33.24
48530;BME280;34927;37.302;-121.982;2022-11-09T03:37:26;99913.0;;;23.58;33.76
48530;BME280;34927;37.302;-121.982;2022-11-09T03:38:32;99917.0;;;23.38;34.01
48530;BME280;34927;37.302;-121.982;2022-11-09T03:39:37;99918.0;;;23.25;34.17
48530;BME280;34927;37.302;-121.982;2022-11-09T03:40:42;99910.0;;;23.07;34.44
48530;BME280;34927;37.302;-121.982;2022-11-09T03:41:46;99909.0;;;22.97;34.51
48530;BME280;34927;37.302;-121.982;2022-11-09T03:42:52;99904.0;;;22.82;34.74
48530;BME280;34927;37.302;-121.982;2022-11-09T03:43:56;99902.0;;;22.87;34.87
48530;BME280;34927;37.302;-121.982;2022-11-09T03:45:02;99903.0;;;23.00;34.78
48530;BME280;34927;37.302;-121.982;2022-11-09T03:46:06;99906.0;;;23.19;34.56
48530;BME280;34927;37.302;-121.982;2022-11-09T03:47:11;99910.0;;;23.42;34.24
48530;BME280;34927;37.302;-121.982;2022-11-09T03:48:16;99910.0;;;23.61;33.94
48530;BME280;34927;37.302;-121.982;2022-11-09T03:49:22;99914.0;;;23.85;33.55
48530;BME280;34927;37.302;-121.982;2022-11-09T03:50:28;99916.0;;;24.05;33.22
48530;BME280;34927;37.302;-121.982;2022-11-09T03:51:32;99919.0;;;24.17;33.01
48530;BME280;34927;37.302;-121.982;2022-11-09T03:52:37;99917.0;;;24.33;32.75
48530;BME280;34927;37.302;-121.982;2022-11-09T03:53:41;99921.0;;;24.33;32.68
48530;BME280;34927;37.302;-121.982;2022-11-09T03:54:46;99928.0;;;24.15;32.94
48530;BME280;34927;37.302;-121.982;2022-11-09T03:55:52;99932.0;;;23.99;33.18
48530;BME280;34927;37.302;-121.982;2022-11-09T03:56:57;99934.0;;;23.78;33.54
48530;BME280;34927;37.302;-121.982;2022-11-09T03:58:02;99939.0;;;23.53;33.93
48530;BME280;34927;37.302;-121.982;2022-11-09T03:59:06;99936.0;;;23.38;34.11
48530;BME280;34927;37.302;-121.982;2022-11-09T04:00:14;99936.0;;;23.27;34.24
48530;BME280;34927;37.302;-121.982;2022-11-09T04:01:16;99944.0;;;23.32;34.23
48530;BME280;34927;37.302;-121.982;2022-11-09T04:02:21;99945.0;;;23.26;34.45
48530;BME280;34927;37.302;-121.982;2022-11-09T04:03:27;99946.0;;;22.75;36.01
48530;BME280;34927;37.302;-121.982;2022-11-09T04:04:32;99947.0;;;22.97;35.38
48530;BME280;34927;37.302;-121.982;2022-11-09T04:05:37;99950.0;;;23.23;35.21
48530;BME280;34927;37.302;-121.982;2022-11-09T04:06:41;99951.0;;;23.39;34.98
48530;BME280;34927;37.302;-121.982;2022-11-09T04:07:47;99953.0;;;23.71;34.64
48530;BME280;34927;37.302;-121.982;2022-11-09T04:08:51;99951.0;;;23.99;34.27
48530;BME280;34927;37.302;-121.982;2022-11-09T04:09:56;99953.0;;;24.24;33.83
48530;BME280;34927;37.302;-121.982;2022-11-09T04:11:01;99960.0;;;24.40;33.64
48530;BME280;34927;37.302;-121.982;2022-11-09T04:12:07;99962.0;;;24.52;33.37
48530;BME280;34927;37.302;-121.982;2022-11-09T04:13:11;99969.0;;;24.44;33.54
48530;BME280;34927;37.302;-121.982;2022-11-09T04:14:16;99970.0;;;24.12;34.03
48530;BME280;34927;37.302;-121.982;2022-11-09T04:15:22;99970.0;;;24.02;34.32
48530;BME280;34927;37.302;-121.982;2022-11-09T04:16:26;99974.0;;;23.86;34.83
48530;BME280;34927;37.302;-121.982;2022-11-09T04:17:32;99975.0;;;23.70;35.10
48530;BME280;34927;37.302;-121.982;2022-11-09T04:18:36;99977.0;;;23.60;35.32
48530;BME280;34927;37.302;-121.982;2022-11-09T04:19:42;99973.0;;;23.33;35.79
48530;BME280;34927;37.302;-121.982;2022-11-09T04:20:47;99973.0;;;23.25;35.98
48530;BME280;34927;37.302;-121.982;2022-11-09T04:21:52;99975.0;;;23.21;35.79
48530;BME280;34927;37.302;-121.982;2022-11-09T04:22:58;99977.0;;;22.99;35.94
48530;BME280;34927;37.302;-121.982;2022-11-09T04:24:01;99977.0;;;23.21;35.60
48530;BME280;34927;37.302;-121.982;2022-11-09T04:25:07;99981.0;;;23.43;35.29
48530;BME280;34927;37.302;-121.982;2022-11-09T04:26:12;99986.0;;;23.66;34.85
48530;BME280;34927;37.302;-121.982;2022-11-09T04:27:16;99990.0;;;24.01;34.41
48530;BME280;34927;37.302;-121.982;2022-11-09T04:28:22;99995.0;;;24.18;34.07
48530;BME280;34927;37.302;-121.982;2022-11-09T04:29:26;99995.0;;;24.41;33.70
48530;BME280;34927;37.302;-121.982;2022-11-09T04:30:33;99999.0;;;24.52;33.49
48530;BME280;34927;37.302;-121.982;2022-11-09T04:31:36;100000.0;;;24.45;33.69
48530;BME280;34927;37.302;-121.982;2022-11-09T04:32:41;100001.0;;;24.31;33.82
48530;BME280;34927;37.302;-121.982;2022-11-09T04:33:49;100002.0;;;24.16;34.05
48530;BME280;34927;37.302;-121.982;2022-11-09T04:34:52;100003.0;;;23.95;34.26
48530;BME280;34927;37.302;-121.982;2022-11-09T04:36:01;100003.0;;;23.76;34.70
48530;BME280;34927;37.302;-121.982;2022-11-09T04:37:06;100000.0;;;23.61;34.97
48530;BME280;34927;37.302;-121.982;2022-11-09T04:38:13;100003.0;;;23.58;34.96
48530;BME280;34927;37.302;-121.982;2022-11-09T04:39:16;100004.0;;;23.53;35.12
48530;BME280;34927;37.302;-121.982;2022-11-09T04:40:22;100006.0;;;23.56;34.90
48530;BME280;34927;37.302;-121.982;2022-11-09T04:41:27;100008.0;;;23.35;35.16
48530;BME280;34927;37.302;-121.982;2022-11-09T04:42:32;100010.0;;;23.33;34.99
48530;BME280;34927;37.302;-121.982;2022-11-09T04:43:36;100008.0;;;23.44;34.96
48530;BME280;34927;37.302;-121.982;2022-11-09T04:44:41;100015.0;;;23.64;34.74
48530;BME280;34927;37.302;-121.982;2022-11-09T04:45:46;100020.0;;;23.84;34.31
48530;BME280;34927;37.302;-121.982;2022-11-09T04:46:52;100024.0;;;24.05;33.98
48530;BME280;34927;37.302;-121.982;2022-11-09T04:47:57;100023.0;;;24.27;33.48
48530;BME280;34927;37.302;-121.982;2022-11-09T04:49:01;100024.0;;;24.46;33.17
48530;BME280;34927;37.302;-121.982;2022-11-09T04:50:08;100025.0;;;24.61;32.90
48530;BME280;34927;37.302;-121.982;2022-11-09T04:51:13;100021.0;;;24.74;32.64
48530;BME280;34927;37.302;-121.982;2022-11-09T04:52:17;100025.0;;;24.58;32.84
48530;BME280;34927;37.302;-121.982;2022-11-09T04:53:22;100025.0;;;24.36;33.15
48530;BME280;34927;37.302;-121.982;2022-11-09T04:54:27;100030.0;;;24.18;33.41
48530;BME280;34927;37.302;-121.982;2022-11-09T04:55:32;100031.0;;;24.00;33.80
48530;BME280;34927;37.302;-121.982;2022-11-09T04:56:36;100035.0;;;23.94;34.03
48530;BME280;34927;37.302;-121.982;2022-11-09T04:57:41;100039.0;;;23.91;34.02
48530;BME280;34927;37.302;-121.982;2022-11-09T04:58:47;100040.0;;;23.84;34.09
48530;BME280;34927;37.302;-121.982;2022-11-09T04:59:52;100042.0;;;23.69;34.32
48530;BME280;34927;37.302;-121.982;2022-11-09T05:01:02;100043.0;;;23.48;34.68
48530;BME280;34927;37.302;-121.982;2022-11-09T05:02:06;100042.0;;;23.49;34.62
48530;BME280;34927;37.302;-121.982;2022-11-09T05:03:12;100044.0;;;23.66;34.53
48530;BME280;34927;37.302;-121.982;2022-11-09T05:04:17;100045.0;;;23.90;34.27
48530;BME280;34927;37.302;-121.982;2022-11-09T05:05:21;100048.0;;;24.16;33.92
48530;BME280;34927;37.302;-121.982;2022-11-09T05:06:27;100046.0;;;24.39;33.65
48530;BME280;34927;37.302;-121.982;2022-11-09T05:07:32;100048.0;;;24.60;33.36
48530;BME280;34927;37.302;-121.982;2022-11-09T05:08:37;100046.0;;;24.77;33.02
48530;BME280;34927;37.302;-121.982;2022-11-09T05:09:41;100047.0;;;24.75;32.89
48530;BME280;34927;37.302;-121.982;2022-11-09T05:10:46;100051.0;;;24.55;33.24
48530;BME280;34927;37.302;-121.982;2022-11-09T05:11:51;100049.0;;;24.46;33.50
48530;BME280;34927;37.302;-121.982;2022-11-09T05:12:57;100050.0;;;24.43;33.61
48530;BME280;34927;37.302;-121.982;2022-11-09T05:14:02;100054.0;;;24.31;33.72
48530;BME280;34927;37.302;-121.982;2022-11-09T05:15:07;100047.0;;;23.97;34.13
48530;BME280;34927;37.302;-121.982;2022-11-09T05:16:12;100046.0;;;23.95;34.21
48530;BME280;34927;37.302;-121.982;2022-11-09T05:17:16;100051.0;;;24.06;34.21
48530;BME280;34927;37.302;-121.982;2022-11-09T05:18:21;100049.0;;;23.93;34.36
48530;BME280;34927;37.302;-121.982;2022-11-09T05:19:26;100048.0;;;23.72;34.60
48530;BME280;34927;37.302;-121.982;2022-11-09T05:20:32;100048.0;;;23.50;35.12
48530;BME280;34927;37.302;-121.982;2022-11-09T05:21:36;100052.0;;;23.24;35.68
48530;BME280;34927;37.302;-121.982;2022-11-09T05:22:41;100052.0;;;23.08;36.05
48530;BME280;34927;37.302;-121.982;2022-11-09T05:23:47;100054.0;;;22.99;36.19
48530;BME280;34927;37.302;-121.982;2022-11-09T05:24:52;100057.0;;;23.09;35.90
48530;BME280;34927;37.302;-121.982;2022-11-09T05:25:56;100060.0;;;23.15;35.74
48530;BME280;34927;37.302;-121.982;2022-11-09T05:27:01;100061.0;;;23.33;35.58
48530;BME280;34927;37.302;-121.982;2022-11-09T05:28:07;100062.0;;;23.55;35.43
48530;BME280;34927;37.302;-121.982;2022-11-09T05:29:12;100067.0;;;23.84;34.98
48530;BME280;34927;37.302;-121.982;2022-11-09T05:30:16;100072.0;;;24.14;34.65
48530;BME280;34927;37.302;-121.982;2022-11-09T05:31:22;100076.0;;;24.28;34.33
48530;BME280;34927;37.302;-121.982;2022-11-09T05:32:26;100077.0;;;24.18;34.41
48530;BME280;34927;37.302;-121.982;2022-11-09T05:33:31;100078.0;;;24.16;34.55
48530;BME280;34927;37.302;-121.982;2022-11-09T05:34:37;100078.0;;;24.06;34.72
48530;BME280;34927;37.302;-121.982;2022-11-09T05:35:42;100077.0;;;23.75;35.05
48530;BME280;34927;37.302;-121.982;2022-11-09T05:36:46;100079.0;;;23.61;35.38
48530;BME280;34927;37.302;-121.982;2022-11-09T05:37:51;100080.0;;;23.43;35.64
48530;BME280;34927;37.302;-121.982;2022-11-09T05:38:57;100080.0;;;23.37;35.93